Clarion, IA (50525)

8:52 PM CDT on August 18, 2017 (GMT -0500)
Clarion Municipal | | Change Station
Active Advisory: Severe Thunderstorm Watch

Elev 1161 ft 42.74 °N, 93.76 °W | Updated 17 minutes ago

Clear
Clear
66 °F
Feels Like 66 °F
N
7
Wind Variable Wind from ENE

Today
High -- | Low -- °F
--% Chance of Precip.
Yesterday
High -- | Low -- °F
Precip. -- in
Pressure 29.91 in
Visibility 10.0 miles
Clouds Clear
Dew Point 66 °F
Humidity 100%
Rainfall 0.00 in
Snow Depth Not available.
6:24 AM 8:11 PM
Waning Crescent, 10% visible
METAR KCAV 190135Z AUTO 07006KT 10SM CLR 19/19 A2991 RMK AO2 PWINO
Pressure 29.91 in
Visibility 10.0 miles
Clouds Clear
Dew Point 66 °F
Humidity 100%
Rainfall 0.00 in
Snow Depth Not available.
6:24 AM 8:11 PM
Waning Crescent, 10% visible
METAR KCAV 190135Z AUTO 07006KT 10SM CLR 19/19 A2991 RMK AO2 PWINO

Get Your Daily Forecast Email!

Thanks for signing up!

Be on the lookout for a verification email in your inbox.

You'll start receiving severe weather alerts in your inbox..

×

10-Day Weather Forecast

Almanac

Astronomy

Aug. 18, 2017 Rise Set
Actual Time
Civil Twilight
Nautical Twilight
Astronomical Twilight
Moon
Length of Visible Light
Length of Day
Tomorrow will be .
, % of the Moon is Illuminated

Today's Extremes

State Highs State Lows

Community

WunderPhotos

Category 6

Welcome to Category 6. This is the collective home for Weather Underground's featured writeups by Dr. Jeff Masters (right), Bob Henson (left), Chris Burt, and other regular contributors.

Nearby

Air Quality

  Air Quality AQ Index Pollutant
Not available.

Snow Depth

Station Depth Elevation

Earthquake Activity

City Distance Mag. Time & Date
Minimum magnitude displayed is 2.5.

Coastal Water Temperatures

Place Temperature

Stations

Nearby Weather Stations

Station Location Temp. Windchill Dew Point Humidity Wind Precip. Elev Updated Type
                   

Watches & Warnings

Severe Thunderstorm Watch
Issued: 8:43 PM CDT Aug. 18, 2017 – National Weather Service

Severe Thunderstorm Watch 456 remains in effect until 100 am CDT
for the following locations


IA
. Iowa counties included are

Adair Audubon Boone
Buena Vista Butler Calhoun
Carroll Cerro Gordo Cherokee
Clay Dallas Dickinson
Emmet Franklin Greene
Grundy Guthrie Hamilton
Hancock Hardin Humboldt
Jasper Kossuth Madison
Mahaska Marion Marshall
O'Brien Osceola Palo Alto
Pocahontas Polk Poweshiek
SAC story Tama
Warren Webster Winnebago
Worth Wright